sensor_id;sensor_type;location;lat;lon;timestamp;P1;durP1;ratioP1;P2;durP2;ratioP2
49460;SDS011;35355;49.198;-0.368;2023-04-10T00:00:47;6.15;;;2.40;;
49460;SDS011;35355;49.198;-0.368;2023-04-10T00:03:17;3.05;;;2.05;;
49460;SDS011;35355;49.198;-0.368;2023-04-10T00:05:43;4.80;;;2.30;;
49460;SDS011;35355;49.198;-0.368;2023-04-10T00:08:08;4.03;;;2.65;;
49460;SDS011;35355;49.198;-0.368;2023-04-10T00:10:34;6.30;;;2.45;;
49460;SDS011;35355;49.198;-0.368;2023-04-10T00:12:59;4.13;;;2.30;;
49460;SDS011;35355;49.198;-0.368;2023-04-10T00:15:25;3.60;;;2.25;;
49460;SDS011;35355;49.198;-0.368;2023-04-10T00:17:50;4.13;;;1.90;;
49460;SDS011;35355;49.198;-0.368;2023-04-10T00:20:19;6.60;;;2.20;;
49460;SDS011;35355;49.198;-0.368;2023-04-10T00:22:47;3.85;;;2.38;;
49460;SDS011;35355;49.198;-0.368;2023-04-10T00:25:13;6.70;;;2.00;;
49460;SDS011;35355;49.198;-0.368;2023-04-10T00:27:39;2.90;;;1.90;;
49460;SDS011;35355;49.198;-0.368;2023-04-10T00:30:04;4.03;;;2.22;;
49460;SDS011;35355;49.198;-0.368;2023-04-10T00:32:31;2.72;;;1.55;;
49460;SDS011;35355;49.198;-0.368;2023-04-10T00:34:56;3.78;;;1.67;;
49460;SDS011;35355;49.198;-0.368;2023-04-10T00:37:22;4.18;;;2.05;;
49460;SDS011;35355;49.198;-0.368;2023-04-10T00:39:47;4.43;;;2.33;;
49460;SDS011;35355;49.198;-0.368;2023-04-10T00:42:12;3.50;;;1.83;;
49460;SDS011;35355;49.198;-0.368;2023-04-10T00:44:38;7.95;;;2.38;;
49460;SDS011;35355;49.198;-0.368;2023-04-10T00:47:05;3.50;;;2.10;;
49460;SDS011;35355;49.198;-0.368;2023-04-10T00:49:31;3.95;;;2.40;;
49460;SDS011;35355;49.198;-0.368;2023-04-10T00:51:58;4.68;;;2.28;;
49460;SDS011;35355;49.198;-0.368;2023-04-10T00:54:23;3.97;;;2.45;;
49460;SDS011;35355;49.198;-0.368;2023-04-10T00:56:49;4.88;;;2.20;;
49460;SDS011;35355;49.198;-0.368;2023-04-10T00:59:15;5.63;;;2.40;;
49460;SDS011;35355;49.198;-0.368;2023-04-10T01:01:41;3.88;;;2.25;;
49460;SDS011;35355;49.198;-0.368;2023-04-10T01:04:07;4.28;;;2.13;;
49460;SDS011;35355;49.198;-0.368;2023-04-10T01:15:13;2.88;;;1.70;;
49460;SDS011;35355;49.198;-0.368;2023-04-10T01:17:46;3.90;;;2.03;;
49460;SDS011;35355;49.198;-0.368;2023-04-10T01:20:15;5.90;;;1.80;;
49460;SDS011;35355;49.198;-0.368;2023-04-10T01:26:02;9.48;;;1.88;;
49460;SDS011;35355;49.198;-0.368;2023-04-10T01:33:57;3.50;;;2.25;;
49460;SDS011;35355;49.198;-0.368;2023-04-10T01:36:26;3.30;;;1.95;;
49460;SDS011;35355;49.198;-0.368;2023-04-10T01:39:01;6.20;;;2.03;;
49460;SDS011;35355;49.198;-0.368;2023-04-10T01:41:28;6.32;;;2.45;;
49460;SDS011;35355;49.198;-0.368;2023-04-10T01:43:56;5.22;;;2.20;;
49460;SDS011;35355;49.198;-0.368;2023-04-10T01:46:23;3.45;;;2.08;;
49460;SDS011;35355;49.198;-0.368;2023-04-10T01:48:50;7.22;;;2.63;;
49460;SDS011;35355;49.198;-0.368;2023-04-10T01:51:17;3.90;;;2.30;;
49460;SDS011;35355;49.198;-0.368;2023-04-10T01:53:43;3.72;;;2.10;;
49460;SDS011;35355;49.198;-0.368;2023-04-10T01:56:11;4.75;;;2.20;;
49460;SDS011;35355;49.198;-0.368;2023-04-10T01:58:37;6.25;;;2.50;;
49460;SDS011;35355;49.198;-0.368;2023-04-10T02:01:03;3.22;;;2.03;;
49460;SDS011;35355;49.198;-0.368;2023-04-10T02:03:28;4.15;;;2.13;;
49460;SDS011;35355;49.198;-0.368;2023-04-10T02:05:56;2.28;;;1.55;;
49460;SDS011;35355;49.198;-0.368;2023-04-10T02:09:15;4.15;;;1.98;;
49460;SDS011;35355;49.198;-0.368;2023-04-10T02:11:33;3.28;;;1.77;;
49460;SDS011;35355;49.198;-0.368;2023-04-10T02:14:07;3.40;;;1.65;;
49460;SDS011;35355;49.198;-0.368;2023-04-10T02:16:37;5.00;;;2.63;;
49460;SDS011;35355;49.198;-0.368;2023-04-10T02:19:03;4.05;;;1.58;;
49460;SDS011;35355;49.198;-0.368;2023-04-10T02:21:31;2.58;;;1.73;;
49460;SDS011;35355;49.198;-0.368;2023-04-10T02:23:57;4.78;;;2.50;;
49460;SDS011;35355;49.198;-0.368;2023-04-10T02:26:23;1.88;;;1.23;;
49460;SDS011;35355;49.198;-0.368;2023-04-10T02:28:49;3.00;;;1.52;;
49460;SDS011;35355;49.198;-0.368;2023-04-10T02:31:14;2.33;;;1.42;;
49460;SDS011;35355;49.198;-0.368;2023-04-10T02:33:40;2.83;;;1.65;;
49460;SDS011;35355;49.198;-0.368;2023-04-10T02:36:05;2.50;;;1.50;;
49460;SDS011;35355;49.198;-0.368;2023-04-10T02:38:31;4.13;;;1.80;;
49460;SDS011;35355;49.198;-0.368;2023-04-10T02:40:56;2.33;;;1.50;;
49460;SDS011;35355;49.198;-0.368;2023-04-10T02:43:22;3.05;;;1.80;;
49460;SDS011;35355;49.198;-0.368;2023-04-10T02:45:47;3.22;;;2.08;;
49460;SDS011;35355;49.198;-0.368;2023-04-10T02:48:13;4.03;;;1.50;;
49460;SDS011;35355;49.198;-0.368;2023-04-10T02:50:38;4.60;;;2.72;;
49460;SDS011;35355;49.198;-0.368;2023-04-10T02:53:05;4.35;;;1.77;;
49460;SDS011;35355;49.198;-0.368;2023-04-10T02:55:30;4.65;;;1.90;;
49460;SDS011;35355;49.198;-0.368;2023-04-10T02:57:55;3.67;;;1.52;;
49460;SDS011;35355;49.198;-0.368;2023-04-10T03:00:21;3.22;;;1.70;;
49460;SDS011;35355;49.198;-0.368;2023-04-10T03:02:46;3.70;;;1.63;;
49460;SDS011;35355;49.198;-0.368;2023-04-10T03:05:12;5.82;;;1.58;;
49460;SDS011;35355;49.198;-0.368;2023-04-10T03:07:37;4.43;;;1.88;;
49460;SDS011;35355;49.198;-0.368;2023-04-10T03:10:02;3.13;;;1.65;;
49460;SDS011;35355;49.198;-0.368;2023-04-10T03:12:28;2.45;;;1.27;;
49460;SDS011;35355;49.198;-0.368;2023-04-10T03:14:53;2.95;;;1.77;;
49460;SDS011;35355;49.198;-0.368;2023-04-10T03:17:19;4.28;;;1.88;;
49460;SDS011;35355;49.198;-0.368;2023-04-10T03:19:44;3.58;;;1.67;;
49460;SDS011;35355;49.198;-0.368;2023-04-10T03:22:10;1.88;;;1.13;;
49460;SDS011;35355;49.198;-0.368;2023-04-10T03:24:35;2.88;;;1.60;;
49460;SDS011;35355;49.198;-0.368;2023-04-10T03:27:02;4.53;;;1.73;;
49460;SDS011;35355;49.198;-0.368;2023-04-10T03:29:27;4.90;;;1.55;;
49460;SDS011;35355;49.198;-0.368;2023-04-10T03:31:53;3.90;;;1.65;;
49460;SDS011;35355;49.198;-0.368;2023-04-10T03:34:18;4.13;;;1.98;;
49460;SDS011;35355;49.198;-0.368;2023-04-10T03:36:43;4.55;;;1.70;;
49460;SDS011;35355;49.198;-0.368;2023-04-10T03:39:09;2.00;;;1.40;;
49460;SDS011;35355;49.198;-0.368;2023-04-10T03:41:34;3.38;;;1.98;;
49460;SDS011;35355;49.198;-0.368;2023-04-10T03:44:00;3.72;;;1.98;;
49460;SDS011;35355;49.198;-0.368;2023-04-10T03:46:27;4.25;;;1.23;;
49460;SDS011;35355;49.198;-0.368;2023-04-10T03:48:52;4.63;;;1.60;;
49460;SDS011;35355;49.198;-0.368;2023-04-10T03:51:18;3.28;;;1.40;;
49460;SDS011;35355;49.198;-0.368;2023-04-10T03:53:44;4.63;;;1.75;;
49460;SDS011;35355;49.198;-0.368;2023-04-10T03:56:09;3.65;;;2.15;;
49460;SDS011;35355;49.198;-0.368;2023-04-10T03:58:35;4.32;;;1.88;;
49460;SDS011;35355;49.198;-0.368;2023-04-10T04:01:00;5.28;;;1.95;;
49460;SDS011;35355;49.198;-0.368;2023-04-10T04:03:25;3.28;;;1.55;;
49460;SDS011;35355;49.198;-0.368;2023-04-10T04:05:51;4.80;;;1.80;;
49460;SDS011;35355;49.198;-0.368;2023-04-10T04:08:16;3.75;;;1.42;;
49460;SDS011;35355;49.198;-0.368;2023-04-10T04:10:42;3.35;;;1.83;;
49460;SDS011;35355;49.198;-0.368;2023-04-10T04:13:07;3.63;;;1.70;;
49460;SDS011;35355;49.198;-0.368;2023-04-10T04:15:32;4.65;;;1.67;;
49460;SDS011;35355;49.198;-0.368;2023-04-10T04:17:58;8.38;;;1.33;;
49460;SDS011;35355;49.198;-0.368;2023-04-10T04:20:24;2.60;;;1.38;;
49460;SDS011;35355;49.198;-0.368;2023-04-10T04:22:50;2.65;;;1.65;;
49460;SDS011;35355;49.198;-0.368;2023-04-10T04:25:15;4.10;;;1.65;;
49460;SDS011;35355;49.198;-0.368;2023-04-10T04:27:42;2.95;;;1.77;;
49460;SDS011;35355;49.198;-0.368;2023-04-10T04:30:07;4.05;;;1.63;;
49460;SDS011;35355;49.198;-0.368;2023-04-10T04:32:33;4.22;;;1.63;;
49460;SDS011;35355;49.198;-0.368;2023-04-10T04:34:58;2.78;;;1.58;;
49460;SDS011;35355;49.198;-0.368;2023-04-10T04:37:23;8.13;;;1.73;;
49460;SDS011;35355;49.198;-0.368;2023-04-10T04:39:49;4.22;;;1.52;;
49460;SDS011;35355;49.198;-0.368;2023-04-10T04:42:14;4.45;;;1.10;;
49460;SDS011;35355;49.198;-0.368;2023-04-10T04:44:40;4.22;;;1.90;;
49460;SDS011;35355;49.198;-0.368;2023-04-10T04:47:05;5.38;;;1.38;;
49460;SDS011;35355;49.198;-0.368;2023-04-10T04:49:30;3.70;;;1.60;;
49460;SDS011;35355;49.198;-0.368;2023-04-10T04:51:56;4.93;;;2.10;;
49460;SDS011;35355;49.198;-0.368;2023-04-10T04:54:21;3.38;;;1.67;;
49460;SDS011;35355;49.198;-0.368;2023-04-10T04:56:46;3.47;;;1.40;;
49460;SDS011;35355;49.198;-0.368;2023-04-10T04:59:12;4.75;;;2.13;;
49460;SDS011;35355;49.198;-0.368;2023-04-10T05:01:37;4.97;;;1.48;;
49460;SDS011;35355;49.198;-0.368;2023-04-10T05:04:02;4.43;;;1.33;;
49460;SDS011;35355;49.198;-0.368;2023-04-10T05:06:28;6.70;;;1.92;;
49460;SDS011;35355;49.198;-0.368;2023-04-10T05:08:53;3.65;;;1.70;;
49460;SDS011;35355;49.198;-0.368;2023-04-10T05:11:18;4.32;;;1.40;;
49460;SDS011;35355;49.198;-0.368;2023-04-10T05:13:44;3.58;;;1.63;;
49460;SDS011;35355;49.198;-0.368;2023-04-10T05:16:09;2.50;;;1.30;;
49460;SDS011;35355;49.198;-0.368;2023-04-10T05:18:35;1.98;;;1.30;;
49460;SDS011;35355;49.198;-0.368;2023-04-10T05:21:00;3.83;;;1.70;;
49460;SDS011;35355;49.198;-0.368;2023-04-10T05:23:26;3.70;;;1.60;;
49460;SDS011;35355;49.198;-0.368;2023-04-10T05:25:51;3.88;;;1.25;;
49460;SDS011;35355;49.198;-0.368;2023-04-10T05:28:17;3.22;;;1.45;;
49460;SDS011;35355;49.198;-0.368;2023-04-10T05:30:42;4.85;;;1.73;;
49460;SDS011;35355;49.198;-0.368;2023-04-10T05:33:07;2.63;;;1.02;;
49460;SDS011;35355;49.198;-0.368;2023-04-10T05:35:33;3.20;;;1.77;;
49460;SDS011;35355;49.198;-0.368;2023-04-10T05:37:58;3.30;;;1.13;;
49460;SDS011;35355;49.198;-0.368;2023-04-10T05:40:24;2.38;;;1.08;;
49460;SDS011;35355;49.198;-0.368;2023-04-10T05:42:50;3.80;;;1.30;;
49460;SDS011;35355;49.198;-0.368;2023-04-10T05:45:16;2.58;;;1.00;;
49460;SDS011;35355;49.198;-0.368;2023-04-10T05:47:42;3.90;;;1.50;;
49460;SDS011;35355;49.198;-0.368;2023-04-10T05:50:08;3.42;;;1.30;;
49460;SDS011;35355;49.198;-0.368;2023-04-10T05:52:33;4.30;;;1.15;;
49460;SDS011;35355;49.198;-0.368;2023-04-10T05:54:59;3.20;;;1.10;;
49460;SDS011;35355;49.198;-0.368;2023-04-10T05:57:24;3.88;;;1.60;;
49460;SDS011;35355;49.198;-0.368;2023-04-10T05:59:50;4.43;;;1.00;;
49460;SDS011;35355;49.198;-0.368;2023-04-10T06:02:15;3.10;;;1.52;;
49460;SDS011;35355;49.198;-0.368;2023-04-10T06:04:41;1.95;;;0.85;;
49460;SDS011;35355;49.198;-0.368;2023-04-10T06:07:06;2.50;;;1.33;;
49460;SDS011;35355;49.198;-0.368;2023-04-10T06:09:31;3.55;;;1.25;;
49460;SDS011;35355;49.198;-0.368;2023-04-10T06:11:57;2.08;;;0.82;;
49460;SDS011;35355;49.198;-0.368;2023-04-10T06:14:22;2.78;;;1.00;;
49460;SDS011;35355;49.198;-0.368;2023-04-10T06:16:47;3.08;;;1.52;;
49460;SDS011;35355;49.198;-0.368;2023-04-10T06:19:13;8.45;;;1.23;;
49460;SDS011;35355;49.198;-0.368;2023-04-10T06:21:38;4.40;;;1.20;;
49460;SDS011;35355;49.198;-0.368;2023-04-10T06:24:04;1.80;;;1.17;;
49460;SDS011;35355;49.198;-0.368;2023-04-10T06:26:29;3.58;;;1.38;;
49460;SDS011;35355;49.198;-0.368;2023-04-10T06:28:55;3.40;;;1.52;;
49460;SDS011;35355;49.198;-0.368;2023-04-10T06:31:20;2.70;;;1.48;;
49460;SDS011;35355;49.198;-0.368;2023-04-10T06:33:46;2.47;;;1.33;;
49460;SDS011;35355;49.198;-0.368;2023-04-10T06:36:12;2.55;;;1.45;;
49460;SDS011;35355;49.198;-0.368;2023-04-10T06:38:38;3.80;;;1.05;;
49460;SDS011;35355;49.198;-0.368;2023-04-10T06:41:04;2.53;;;1.30;;
49460;SDS011;35355;49.198;-0.368;2023-04-10T06:43:31;4.38;;;1.50;;
49460;SDS011;35355;49.198;-0.368;2023-04-10T06:45:58;3.08;;;1.58;;
49460;SDS011;35355;49.198;-0.368;2023-04-10T06:48:23;3.45;;;1.27;;
49460;SDS011;35355;49.198;-0.368;2023-04-10T06:50:48;3.42;;;1.30;;
49460;SDS011;35355;49.198;-0.368;2023-04-10T06:53:14;6.22;;;1.52;;
49460;SDS011;35355;49.198;-0.368;2023-04-10T06:55:39;2.92;;;1.38;;
49460;SDS011;35355;49.198;-0.368;2023-04-10T06:58:04;2.33;;;0.82;;
49460;SDS011;35355;49.198;-0.368;2023-04-10T07:00:30;4.05;;;1.15;;
49460;SDS011;35355;49.198;-0.368;2023-04-10T07:02:55;3.25;;;1.20;;
49460;SDS011;35355;49.198;-0.368;2023-04-10T07:05:21;3.08;;;1.55;;
49460;SDS011;35355;49.198;-0.368;2023-04-10T07:07:46;3.03;;;1.10;;
49460;SDS011;35355;49.198;-0.368;2023-04-10T07:10:14;4.40;;;1.05;;
49460;SDS011;35355;49.198;-0.368;2023-04-10T07:12:40;3.15;;;1.40;;
49460;SDS011;35355;49.198;-0.368;2023-04-10T07:15:05;2.80;;;1.33;;
49460;SDS011;35355;49.198;-0.368;2023-04-10T07:17:32;5.25;;;1.67;;
49460;SDS011;35355;49.198;-0.368;2023-04-10T07:19:57;2.83;;;0.93;;
49460;SDS011;35355;49.198;-0.368;2023-04-10T07:22:23;2.95;;;1.17;;
49460;SDS011;35355;49.198;-0.368;2023-04-10T07:24:48;4.00;;;0.90;;
49460;SDS011;35355;49.198;-0.368;2023-04-10T07:27:14;4.90;;;1.33;;
49460;SDS011;35355;49.198;-0.368;2023-04-10T07:29:40;11.20;;;1.58;;
49460;SDS011;35355;49.198;-0.368;2023-04-10T07:32:06;3.80;;;1.35;;
49460;SDS011;35355;49.198;-0.368;2023-04-10T07:34:31;3.97;;;1.13;;
49460;SDS011;35355;49.198;-0.368;2023-04-10T07:36:57;4.80;;;1.58;;
49460;SDS011;35355;49.198;-0.368;2023-04-10T07:39:22;3.33;;;1.67;;
49460;SDS011;35355;49.198;-0.368;2023-04-10T07:41:48;2.15;;;1.10;;
49460;SDS011;35355;49.198;-0.368;2023-04-10T07:44:13;7.55;;;1.88;;
49460;SDS011;35355;49.198;-0.368;2023-04-10T07:46:39;2.88;;;1.20;;
49460;SDS011;35355;49.198;-0.368;2023-04-10T07:49:04;9.52;;;1.38;;
49460;SDS011;35355;49.198;-0.368;2023-04-10T07:51:30;4.00;;;1.00;;
49460;SDS011;35355;49.198;-0.368;2023-04-10T07:53:55;4.22;;;1.23;;
49460;SDS011;35355;49.198;-0.368;2023-04-10T07:56:21;5.45;;;1.65;;
49460;SDS011;35355;49.198;-0.368;2023-04-10T07:58:47;6.55;;;1.20;;
49460;SDS011;35355;49.198;-0.368;2023-04-10T08:01:13;5.57;;;0.98;;
49460;SDS011;35355;49.198;-0.368;2023-04-10T08:03:40;3.20;;;1.73;;
49460;SDS011;35355;49.198;-0.368;2023-04-10T08:06:10;2.42;;;0.80;;
49460;SDS011;35355;49.198;-0.368;2023-04-10T08:08:39;3.35;;;1.08;;
49460;SDS011;35355;49.198;-0.368;2023-04-10T08:11:06;4.65;;;1.38;;
49460;SDS011;35355;49.198;-0.368;2023-04-10T08:13:47;6.45;;;1.02;;
49460;SDS011;35355;49.198;-0.368;2023-04-10T08:16:13;3.13;;;1.40;;
49460;SDS011;35355;49.198;-0.368;2023-04-10T08:18:38;4.38;;;1.00;;
49460;SDS011;35355;49.198;-0.368;2023-04-10T08:21:03;2.55;;;1.13;;
49460;SDS011;35355;49.198;-0.368;2023-04-10T08:23:29;3.72;;;1.20;;
49460;SDS011;35355;49.198;-0.368;2023-04-10T08:25:54;3.17;;;1.38;;
49460;SDS011;35355;49.198;-0.368;2023-04-10T08:28:20;3.65;;;1.13;;
49460;SDS011;35355;49.198;-0.368;2023-04-10T08:30:45;5.18;;;1.60;;
49460;SDS011;35355;49.198;-0.368;2023-04-10T08:33:10;1.85;;;1.20;;
49460;SDS011;35355;49.198;-0.368;2023-04-10T08:35:36;3.95;;;1.55;;
49460;SDS011;35355;49.198;-0.368;2023-04-10T08:38:01;3.28;;;1.50;;
49460;SDS011;35355;49.198;-0.368;2023-04-10T08:40:27;12.65;;;1.15;;
49460;SDS011;35355;49.198;-0.368;2023-04-10T08:42:52;2.83;;;1.02;;
49460;SDS011;35355;49.198;-0.368;2023-04-10T08:45:17;4.35;;;1.05;;
49460;SDS011;35355;49.198;-0.368;2023-04-10T08:47:43;3.85;;;0.93;;
49460;SDS011;35355;49.198;-0.368;2023-04-10T08:50:12;4.55;;;1.00;;
49460;SDS011;35355;49.198;-0.368;2023-04-10T08:52:41;3.38;;;0.70;;
49460;SDS011;35355;49.198;-0.368;2023-04-10T08:55:08;3.90;;;0.70;;
49460;SDS011;35355;49.198;-0.368;2023-04-10T08:57:37;3.53;;;1.05;;
49460;SDS011;35355;49.198;-0.368;2023-04-10T09:00:02;4.25;;;1.30;;
49460;SDS011;35355;49.198;-0.368;2023-04-10T09:02:28;3.72;;;0.90;;
49460;SDS011;35355;49.198;-0.368;2023-04-10T09:04:54;6.30;;;0.95;;
49460;SDS011;35355;49.198;-0.368;2023-04-10T09:07:22;3.97;;;1.20;;
49460;SDS011;35355;49.198;-0.368;2023-04-10T09:09:48;5.10;;;1.20;;
49460;SDS011;35355;49.198;-0.368;2023-04-10T09:12:13;1.83;;;0.95;;
49460;SDS011;35355;49.198;-0.368;2023-04-10T09:14:40;3.63;;;1.00;;
49460;SDS011;35355;49.198;-0.368;2023-04-10T09:19:45;2.30;;;0.60;;
49460;SDS011;35355;49.198;-0.368;2023-04-10T09:22:17;4.03;;;1.25;;
49460;SDS011;35355;49.198;-0.368;2023-04-10T09:24:44;2.70;;;1.00;;
49460;SDS011;35355;49.198;-0.368;2023-04-10T09:27:11;3.42;;;1.00;;
49460;SDS011;35355;49.198;-0.368;2023-04-10T09:29:52;1.45;;;0.80;;
49460;SDS011;35355;49.198;-0.368;2023-04-10T09:35:01;1.98;;;0.85;;
49460;SDS011;35355;49.198;-0.368;2023-04-10T09:37:32;2.83;;;0.80;;
49460;SDS011;35355;49.198;-0.368;2023-04-10T09:39:58;3.80;;;1.40;;
49460;SDS011;35355;49.198;-0.368;2023-04-10T09:42:33;6.95;;;1.20;;
49460;SDS011;35355;49.198;-0.368;2023-04-10T09:45:03;2.90;;;0.80;;
49460;SDS011;35355;49.198;-0.368;2023-04-10T09:47:30;2.85;;;0.68;;
49460;SDS011;35355;49.198;-0.368;2023-04-10T09:49:59;5.28;;;1.23;;
49460;SDS011;35355;49.198;-0.368;2023-04-10T09:54:51;3.35;;;1.13;;
49460;SDS011;35355;49.198;-0.368;2023-04-10T09:57:18;4.82;;;1.75;;
49460;SDS011;35355;49.198;-0.368;2023-04-10T09:59:47;6.20;;;2.13;;
49460;SDS011;35355;49.198;-0.368;2023-04-10T10:02:20;6.80;;;1.70;;
49460;SDS011;35355;49.198;-0.368;2023-04-10T10:04:47;2.10;;;1.00;;
49460;SDS011;35355;49.198;-0.368;2023-04-10T10:07:18;3.60;;;1.13;;
49460;SDS011;35355;49.198;-0.368;2023-04-10T10:09:46;6.57;;;2.70;;
49460;SDS011;35355;49.198;-0.368;2023-04-10T10:12:14;5.60;;;1.50;;
49460;SDS011;35355;49.198;-0.368;2023-04-10T10:14:48;3.30;;;1.70;;
49460;SDS011;35355;49.198;-0.368;2023-04-10T10:18:21;2.75;;;1.70;;
49460;SDS011;35355;49.198;-0.368;2023-04-10T10:20:24;6.53;;;3.03;;
49460;SDS011;35355;49.198;-0.368;2023-04-10T10:22:50;2.25;;;1.58;;
49460;SDS011;35355;49.198;-0.368;2023-04-10T10:25:17;4.70;;;1.83;;
49460;SDS011;35355;49.198;-0.368;2023-04-10T10:27:45;4.30;;;2.55;;
49460;SDS011;35355;49.198;-0.368;2023-04-10T10:30:13;5.85;;;1.92;;
49460;SDS011;35355;49.198;-0.368;2023-04-10T10:32:43;2.28;;;1.20;;
49460;SDS011;35355;49.198;-0.368;2023-04-10T10:35:10;4.90;;;1.70;;
49460;SDS011;35355;49.198;-0.368;2023-04-10T10:37:36;5.63;;;1.65;;
49460;SDS011;35355;49.198;-0.368;2023-04-10T10:43:01;2.95;;;1.10;;
49460;SDS011;35355;49.198;-0.368;2023-04-10T10:48:26;4.28;;;2.08;;
49460;SDS011;35355;49.198;-0.368;2023-04-10T10:50:58;2.97;;;1.60;;
49460;SDS011;35355;49.198;-0.368;2023-04-10T10:53:43;4.88;;;1.77;;
49460;SDS011;35355;49.198;-0.368;2023-04-10T10:58:46;4.85;;;1.60;;
49460;SDS011;35355;49.198;-0.368;2023-04-10T11:01:13;3.08;;;1.67;;
49460;SDS011;35355;49.198;-0.368;2023-04-10T11:03:39;6.32;;;1.88;;
49460;SDS011;35355;49.198;-0.368;2023-04-10T11:06:08;7.82;;;2.88;;
49460;SDS011;35355;49.198;-0.368;2023-04-10T11:08:46;3.47;;;1.63;;
49460;SDS011;35355;49.198;-0.368;2023-04-10T11:11:13;8.40;;;2.15;;
49460;SDS011;35355;49.198;-0.368;2023-04-10T11:21:25;4.18;;;1.80;;
49460;SDS011;35355;49.198;-0.368;2023-04-10T11:31:36;7.03;;;1.85;;
49460;SDS011;35355;49.198;-0.368;2023-04-10T11:34:03;5.00;;;2.20;;
49460;SDS011;35355;49.198;-0.368;2023-04-10T11:36:31;8.30;;;1.45;;
49460;SDS011;35355;49.198;-0.368;2023-04-10T11:38:58;4.07;;;1.50;;
49460;SDS011;35355;49.198;-0.368;2023-04-10T11:41:27;4.15;;;1.67;;
49460;SDS011;35355;49.198;-0.368;2023-04-10T11:43:54;4.93;;;2.10;;
49460;SDS011;35355;49.198;-0.368;2023-04-10T11:46:20;3.30;;;2.08;;
49460;SDS011;35355;49.198;-0.368;2023-04-10T11:48:45;4.72;;;2.17;;
49460;SDS011;35355;49.198;-0.368;2023-04-10T11:51:12;5.43;;;3.47;;
49460;SDS011;35355;49.198;-0.368;2023-04-10T11:53:38;5.85;;;2.88;;
49460;SDS011;35355;49.198;-0.368;2023-04-10T11:56:05;4.43;;;2.72;;
49460;SDS011;35355;49.198;-0.368;2023-04-10T11:58:38;3.33;;;2.20;;
49460;SDS011;35355;49.198;-0.368;2023-04-10T12:01:04;4.35;;;2.20;;
49460;SDS011;35355;49.198;-0.368;2023-04-10T12:03:33;3.53;;;1.85;;
49460;SDS011;35355;49.198;-0.368;2023-04-10T12:06:05;3.05;;;1.77;;
49460;SDS011;35355;49.198;-0.368;2023-04-10T12:08:37;5.18;;;1.63;;
49460;SDS011;35355;49.198;-0.368;2023-04-10T12:11:04;2.50;;;1.60;;
49460;SDS011;35355;49.198;-0.368;2023-04-10T12:13:29;2.75;;;1.63;;
49460;SDS011;35355;49.198;-0.368;2023-04-10T12:15:59;3.92;;;1.52;;
49460;SDS011;35355;49.198;-0.368;2023-04-10T12:18:26;3.10;;;1.88;;
49460;SDS011;35355;49.198;-0.368;2023-04-10T12:20:53;3.83;;;1.10;;
49460;SDS011;35355;49.198;-0.368;2023-04-10T12:23:24;6.43;;;1.30;;
49460;SDS011;35355;49.198;-0.368;2023-04-10T12:25:51;7.90;;;0.98;;
49460;SDS011;35355;49.198;-0.368;2023-04-10T12:28:20;9.98;;;1.27;;
49460;SDS011;35355;49.198;-0.368;2023-04-10T12:30:47;16.13;;;1.42;;
49460;SDS011;35355;49.198;-0.368;2023-04-10T12:33:22;10.80;;;1.50;;
49460;SDS011;35355;49.198;-0.368;2023-04-10T12:35:48;10.65;;;1.40;;
49460;SDS011;35355;49.198;-0.368;2023-04-10T12:38:15;10.25;;;1.92;;
49460;SDS011;35355;49.198;-0.368;2023-04-10T12:41:01;8.55;;;1.33;;
49460;SDS011;35355;49.198;-0.368;2023-04-10T12:43:31;6.18;;;1.10;;
49460;SDS011;35355;49.198;-0.368;2023-04-10T12:46:01;11.55;;;1.60;;
49460;SDS011;35355;49.198;-0.368;2023-04-10T12:48:27;10.77;;;1.25;;
49460;SDS011;35355;49.198;-0.368;2023-04-10T12:50:52;8.50;;;1.63;;
49460;SDS011;35355;49.198;-0.368;2023-04-10T12:53:18;9.98;;;1.65;;
49460;SDS011;35355;49.198;-0.368;2023-04-10T12:55:56;9.57;;;1.20;;
49460;SDS011;35355;49.198;-0.368;2023-04-10T12:58:23;11.27;;;1.30;;
49460;SDS011;35355;49.198;-0.368;2023-04-10T13:00:52;14.70;;;1.80;;
49460;SDS011;35355;49.198;-0.368;2023-04-10T13:03:19;8.43;;;1.10;;
49460;SDS011;35355;49.198;-0.368;2023-04-10T13:05:45;8.43;;;0.98;;
49460;SDS011;35355;49.198;-0.368;2023-04-10T13:08:11;9.13;;;1.15;;
49460;SDS011;35355;49.198;-0.368;2023-04-10T13:10:36;6.53;;;1.58;;
49460;SDS011;35355;49.198;-0.368;2023-04-10T13:13:02;8.70;;;1.70;;
49460;SDS011;35355;49.198;-0.368;2023-04-10T13:15:28;16.77;;;1.85;;
49460;SDS011;35355;49.198;-0.368;2023-04-10T13:17:54;6.68;;;1.08;;
49460;SDS011;35355;49.198;-0.368;2023-04-10T13:20:19;7.65;;;0.75;;
49460;SDS011;35355;49.198;-0.368;2023-04-10T13:22:46;6.13;;;0.82;;
49460;SDS011;35355;49.198;-0.368;2023-04-10T13:25:11;6.65;;;1.17;;
49460;SDS011;35355;49.198;-0.368;2023-04-10T13:27:37;5.55;;;1.10;;
49460;SDS011;35355;49.198;-0.368;2023-04-10T13:30:02;9.77;;;1.55;;
49460;SDS011;35355;49.198;-0.368;2023-04-10T13:32:28;9.73;;;1.25;;
49460;SDS011;35355;49.198;-0.368;2023-04-10T13:34:53;9.43;;;1.05;;
49460;SDS011;35355;49.198;-0.368;2023-04-10T13:37:19;11.65;;;1.30;;
49460;SDS011;35355;49.198;-0.368;2023-04-10T13:39:44;9.27;;;1.05;;
49460;SDS011;35355;49.198;-0.368;2023-04-10T13:42:10;12.63;;;1.75;;
49460;SDS011;35355;49.198;-0.368;2023-04-10T13:44:35;12.77;;;1.85;;
49460;SDS011;35355;49.198;-0.368;2023-04-10T13:47:01;14.10;;;1.80;;
49460;SDS011;35355;49.198;-0.368;2023-04-10T13:49:26;7.53;;;1.98;;
49460;SDS011;35355;49.198;-0.368;2023-04-10T13:51:54;9.32;;;1.30;;
49460;SDS011;35355;49.198;-0.368;2023-04-10T13:54:20;18.63;;;2.15;;
49460;SDS011;35355;49.198;-0.368;2023-04-10T13:56:47;10.43;;;1.52;;
49460;SDS011;35355;49.198;-0.368;2023-04-10T13:59:12;12.52;;;1.67;;
49460;SDS011;35355;49.198;-0.368;2023-04-10T14:01:38;11.15;;;1.70;;
49460;SDS011;35355;49.198;-0.368;2023-04-10T14:04:03;13.43;;;1.58;;
49460;SDS011;35355;49.198;-0.368;2023-04-10T14:06:29;17.98;;;1.92;;
49460;SDS011;35355;49.198;-0.368;2023-04-10T14:08:55;11.60;;;1.75;;
49460;SDS011;35355;49.198;-0.368;2023-04-10T14:11:21;12.45;;;2.13;;
49460;SDS011;35355;49.198;-0.368;2023-04-10T14:13:47;9.85;;;2.55;;
49460;SDS011;35355;49.198;-0.368;2023-04-10T14:16:12;11.27;;;2.03;;
49460;SDS011;35355;49.198;-0.368;2023-04-10T14:18:38;19.45;;;1.88;;
49460;SDS011;35355;49.198;-0.368;2023-04-10T14:21:03;16.35;;;2.22;;
49460;SDS011;35355;49.198;-0.368;2023-04-10T14:23:29;15.52;;;2.10;;
49460;SDS011;35355;49.198;-0.368;2023-04-10T14:25:54;20.88;;;2.20;;
49460;SDS011;35355;49.198;-0.368;2023-04-10T14:28:20;11.95;;;1.60;;
49460;SDS011;35355;49.198;-0.368;2023-04-10T14:30:46;18.27;;;1.70;;
49460;SDS011;35355;49.198;-0.368;2023-04-10T14:33:13;14.20;;;1.70;;
49460;SDS011;35355;49.198;-0.368;2023-04-10T14:35:40;10.18;;;2.15;;
49460;SDS011;35355;49.198;-0.368;2023-04-10T14:38:05;13.18;;;1.88;;
49460;SDS011;35355;49.198;-0.368;2023-04-10T14:40:32;15.98;;;2.45;;
49460;SDS011;35355;49.198;-0.368;2023-04-10T14:42:57;14.00;;;1.52;;
49460;SDS011;35355;49.198;-0.368;2023-04-10T14:45:23;14.60;;;2.30;;
49460;SDS011;35355;49.198;-0.368;2023-04-10T14:47:49;16.13;;;3.25;;
49460;SDS011;35355;49.198;-0.368;2023-04-10T14:50:15;17.20;;;2.88;;
49460;SDS011;35355;49.198;-0.368;2023-04-10T14:52:41;13.48;;;2.75;;
49460;SDS011;35355;49.198;-0.368;2023-04-10T14:55:06;17.27;;;3.05;;
49460;SDS011;35355;49.198;-0.368;2023-04-10T14:57:32;15.80;;;3.10;;
49460;SDS011;35355;49.198;-0.368;2023-04-10T14:59:57;12.95;;;2.20;;
49460;SDS011;35355;49.198;-0.368;2023-04-10T15:02:25;11.23;;;2.40;;
49460;SDS011;35355;49.198;-0.368;2023-04-10T15:04:50;9.85;;;2.03;;
49460;SDS011;35355;49.198;-0.368;2023-04-10T15:07:16;12.55;;;2.08;;
49460;SDS011;35355;49.198;-0.368;2023-04-10T15:09:41;15.20;;;2.50;;
49460;SDS011;35355;49.198;-0.368;2023-04-10T15:12:08;11.85;;;2.90;;
49460;SDS011;35355;49.198;-0.368;2023-04-10T15:14:34;19.55;;;2.70;;
49460;SDS011;35355;49.198;-0.368;2023-04-10T15:16:59;10.48;;;2.15;;
49460;SDS011;35355;49.198;-0.368;2023-04-10T15:19:25;18.50;;;2.72;;